createdAt,value
2018-07-16T00:17:55.750Z,100.00
2018-07-16T00:19:17.869Z,100.00
2018-07-16T00:20:45.027Z,100.00
2018-07-16T00:22:16.785Z,100.00
2018-07-16T00:23:40.338Z,100.00
2018-07-16T00:25:07.588Z,100.00
2018-07-16T00:26:34.908Z,100.00
2018-07-16T00:28:02.343Z,100.00
2018-07-16T00:29:29.719Z,100.00
2018-07-16T00:30:57.200Z,100.00
2018-07-16T00:32:28.522Z,100.00
2018-07-16T00:36:11.500Z,100.00
2018-07-16T00:41:17.321Z,100.00
2018-07-16T00:42:44.178Z,100.00
2018-07-16T00:44:11.102Z,100.00
2018-07-16T00:46:02.018Z,100.00
2018-07-16T00:47:51.437Z,100.00
2018-07-16T00:49:11.403Z,100.00
2018-07-16T00:50:38.651Z,100.00
2018-07-16T00:52:06.138Z,100.00
2018-07-16T00:53:37.636Z,100.00
2018-07-16T00:55:00.952Z,100.00
2018-07-16T00:56:32.312Z,100.00
2018-07-16T00:59:26.598Z,100.00
2018-07-16T01:07:30.889Z,100.00
2018-07-16T01:08:57.528Z,100.00
2018-07-16T01:30:07.184Z,100.00
2018-07-16T01:31:29.805Z,100.00
2018-07-16T01:33:00.854Z,100.00
2018-07-16T01:34:24.069Z,100.00
2018-07-16T01:35:55.477Z,100.00
2018-07-16T01:37:18.920Z,100.00
2018-07-16T01:38:45.972Z,100.00
2018-07-16T01:40:13.461Z,100.00
2018-07-16T05:54:02.977Z,100.00
2018-07-16T05:55:25.758Z,100.00
2018-07-16T05:56:56.591Z,100.00
2018-07-16T05:58:24.051Z,100.00
2018-07-16T05:59:51.596Z,100.00
2018-07-16T06:01:18.627Z,100.00
2018-07-16T06:02:45.834Z,100.00
2018-07-16T06:04:09.455Z,100.00
2018-07-16T06:05:37.079Z,100.00
2018-07-16T06:07:04.450Z,100.00
2018-07-16T06:08:31.988Z,100.00
2018-07-16T06:09:59.334Z,100.00
2018-07-16T06:11:26.728Z,100.00
2018-07-16T06:12:54.420Z,100.00
2018-07-16T06:14:22.020Z,100.00
2018-07-16T06:15:53.298Z,100.00
2018-07-16T06:17:16.816Z,100.00
2018-07-16T06:18:44.445Z,100.00
2018-07-16T06:20:12.084Z,100.00
2018-07-16T06:21:39.429Z,100.00
2018-07-16T06:23:06.697Z,100.00
2018-07-16T06:24:33.635Z,100.00
2018-07-16T06:26:05.199Z,100.00
2018-07-16T06:27:32.744Z,100.00
2018-07-16T06:28:56.350Z,100.00
2018-07-16T06:30:23.367Z,100.00
2018-07-16T06:31:51.026Z,100.00
2018-07-16T06:33:22.375Z,100.00
2018-07-16T06:34:45.558Z,100.00
2018-07-16T06:36:16.868Z,100.00
2018-07-16T06:37:40.445Z,100.00
2018-07-16T06:39:07.825Z,100.00
2018-07-16T06:40:35.610Z,100.00
2018-07-16T06:42:02.940Z,100.00
2018-07-16T06:43:30.329Z,100.00
2018-07-16T06:45:01.951Z,100.00
2018-07-16T06:46:29.311Z,100.00
2018-07-16T06:47:56.879Z,100.00
2018-07-16T06:49:20.350Z,100.00
2018-07-16T06:50:47.993Z,100.00
2018-07-16T06:52:15.117Z,100.00
2018-07-16T06:53:42.361Z,100.00
2018-07-16T06:55:09.839Z,100.00
2018-07-16T06:56:37.191Z,100.00
2018-07-16T06:58:04.879Z,100.00
2018-07-16T06:59:32.549Z,100.00
2018-07-16T07:00:59.652Z,100.00
2018-07-16T07:02:27.140Z,100.00
2018-07-16T07:03:54.792Z,100.00
2018-07-16T07:05:26.112Z,100.00
2018-07-16T07:06:49.717Z,100.00
2018-07-16T07:08:21.257Z,100.00
2018-07-16T07:09:48.705Z,100.00
2018-07-16T07:11:12.133Z,100.00
2018-07-16T07:12:39.616Z,100.00
2018-07-16T07:14:11.157Z,100.00
2018-07-16T07:15:38.805Z,100.00
2018-07-16T07:17:06.558Z,100.00
2018-07-16T07:18:34.138Z,100.00
2018-07-16T07:20:01.832Z,100.00
2018-07-16T07:21:25.510Z,100.00
2018-07-16T07:22:53.185Z,100.00
2018-07-16T07:24:20.738Z,100.00
2018-07-16T07:25:48.038Z,100.00
2018-07-16T07:27:15.636Z,100.00
2018-07-16T07:28:47.315Z,100.00
2018-07-16T07:30:14.874Z,100.00
2018-07-16T07:31:38.639Z,100.00
2018-07-16T07:33:10.226Z,100.00
2018-07-16T07:34:33.567Z,100.00
2018-07-16T07:36:01.322Z,100.00
2018-07-16T07:37:32.855Z,100.00
2018-07-16T07:38:56.559Z,100.00
2018-07-16T07:40:28.074Z,100.00
2018-07-16T07:41:51.411Z,100.00
2018-07-16T07:43:18.298Z,100.00
2018-07-16T07:44:45.985Z,100.00
2018-07-16T07:46:13.465Z,100.00
2018-07-16T07:47:45.264Z,100.00
2018-07-16T07:49:12.622Z,100.00
2018-07-16T07:50:40.348Z,100.00
2018-07-16T07:52:03.976Z,100.00
2018-07-16T07:53:35.720Z,100.00
2018-07-16T07:55:03.646Z,100.00
2018-07-16T07:56:27.033Z,100.00
2018-07-16T07:57:54.535Z,100.00
2018-07-16T07:59:25.907Z,100.00
2018-07-16T08:00:53.193Z,100.00
2018-07-16T08:02:20.668Z,100.00
2018-07-16T08:03:44.172Z,100.00
2018-07-16T08:05:11.483Z,100.00
2018-07-16T08:06:39.180Z,100.00
2018-07-16T08:08:06.737Z,100.00
2018-07-16T08:09:38.135Z,100.00
2018-07-16T08:11:01.464Z,100.00
2018-07-16T08:12:29.094Z,100.00
2018-07-16T08:14:00.863Z,100.00
2018-07-16T08:15:28.326Z,100.00
2018-07-16T08:16:55.766Z,100.00
2018-07-16T08:18:19.402Z,100.00
2018-07-16T08:19:50.826Z,100.00
2018-07-16T08:22:46.007Z,100.00
2018-07-16T08:24:09.238Z,100.00
2018-07-16T08:25:36.872Z,100.00
2018-07-16T08:27:08.417Z,100.00
2018-07-16T08:28:35.944Z,100.00
2018-07-16T08:29:59.530Z,100.00
2018-07-16T08:31:27.055Z,100.00
2018-07-16T08:32:54.378Z,100.00
2018-07-16T08:34:21.870Z,100.00
2018-07-16T08:35:49.307Z,100.00
2018-07-16T08:37:20.146Z,100.00
2018-07-16T08:38:43.631Z,100.00
2018-07-16T08:40:11.331Z,100.00
2018-07-16T08:41:42.995Z,100.00
2018-07-16T08:43:10.446Z,100.00
2018-07-16T08:44:33.927Z,100.00
2018-07-16T08:46:05.380Z,100.00
2018-07-16T08:47:32.527Z,100.00
2018-07-16T08:48:59.798Z,100.00
2018-07-16T08:50:27.399Z,100.00
2018-07-16T08:51:50.896Z,100.00
2018-07-16T08:53:18.422Z,100.00
2018-07-16T08:54:45.809Z,100.00
2018-07-16T08:56:13.525Z,100.00
2018-07-16T08:57:41.069Z,100.00
2018-07-16T08:59:12.503Z,100.00
2018-07-16T09:00:35.780Z,100.00
2018-07-16T09:02:03.144Z,100.00
2018-07-16T09:03:30.933Z,100.00
2018-07-16T09:04:58.461Z,100.00
2018-07-16T09:06:26.049Z,100.00
2018-07-16T09:07:57.420Z,100.00
2018-07-16T09:09:20.970Z,100.00
2018-07-16T09:10:52.782Z,100.00
2018-07-16T09:12:20.441Z,100.00
2018-07-16T09:13:48.044Z,100.00
2018-07-16T09:15:11.394Z,100.00
2018-07-16T09:16:38.967Z,100.00
2018-07-16T09:18:06.572Z,100.00
2018-07-16T09:19:34.290Z,100.00
2018-07-16T09:21:01.846Z,100.00
2018-07-16T09:22:29.440Z,100.00
2018-07-16T09:24:00.993Z,100.00
2018-07-16T09:25:24.575Z,100.00
2018-07-16T09:26:56.085Z,100.00
2018-07-16T09:28:19.640Z,100.00
2018-07-16T09:29:47.224Z,100.00
2018-07-16T09:31:14.780Z,100.00
2018-07-16T09:32:42.295Z,100.00
2018-07-16T09:34:09.588Z,100.00
2018-07-16T09:35:41.181Z,100.00
2018-07-16T09:37:04.808Z,100.00
2018-07-16T09:38:36.368Z,100.00
2018-07-16T09:39:59.602Z,100.00
2018-07-16T09:41:27.102Z,100.00
2018-07-16T09:42:54.372Z,100.00
2018-07-16T09:44:21.942Z,100.00
2018-07-16T09:45:49.341Z,100.00
2018-07-16T09:47:21.049Z,100.00
2018-07-16T09:48:44.629Z,100.00
2018-07-16T09:50:16.162Z,100.00
2018-07-16T09:51:39.854Z,100.00
2018-07-16T09:53:07.406Z,100.00
2018-07-16T09:54:38.981Z,100.00
2018-07-16T09:56:02.585Z,100.00
2018-07-16T09:57:30.090Z,100.00
2018-07-16T09:58:57.568Z,100.00
2018-07-16T10:00:25.168Z,100.00
2018-07-16T10:01:52.760Z,100.00
2018-07-16T10:03:20.311Z,100.00
2018-07-16T10:04:51.914Z,100.00
2018-07-16T10:06:15.530Z,100.00
2018-07-16T10:07:43.164Z,100.00
2018-07-16T10:09:14.753Z,100.00
2018-07-16T10:10:42.464Z,100.00
2018-07-16T10:12:06.121Z,100.00
2018-07-16T10:13:37.774Z,100.00
2018-07-16T10:15:01.378Z,100.00
2018-07-16T10:16:28.749Z,100.00
2018-07-16T10:18:00.488Z,100.00
2018-07-16T10:19:28.055Z,100.00
2018-07-16T10:20:51.426Z,100.00
2018-07-16T10:22:22.915Z,100.00
2018-07-16T10:23:46.714Z,100.00
2018-07-16T10:25:18.361Z,100.00
2018-07-16T10:26:41.826Z,100.00
2018-07-16T10:28:13.506Z,100.00
2018-07-16T10:29:37.174Z,100.00
2018-07-16T10:31:08.740Z,100.00
2018-07-16T10:32:36.295Z,100.00
2018-07-16T10:33:59.724Z,100.00
2018-07-16T10:35:27.077Z,100.00
2018-07-16T10:36:58.529Z,100.00
2018-07-16T10:38:22.000Z,100.00
2018-07-16T10:39:53.481Z,100.00
2018-07-16T10:41:17.159Z,100.00
2018-07-16T10:42:48.725Z,100.00
2018-07-16T10:44:12.558Z,100.00
2018-07-16T10:45:40.241Z,100.00
2018-07-16T10:47:07.816Z,100.00
2018-07-16T10:48:39.444Z,100.00
2018-07-16T10:50:03.041Z,100.00
2018-07-16T10:51:30.602Z,100.00
2018-07-16T10:52:58.050Z,100.00
2018-07-16T10:54:25.841Z,100.00
2018-07-16T10:55:53.401Z,100.00
2018-07-16T10:57:21.282Z,100.00
2018-07-16T10:58:48.620Z,100.00
2018-07-16T11:00:16.144Z,100.00
2018-07-16T11:01:47.941Z,100.00
2018-07-16T11:03:11.324Z,100.00
2018-07-16T11:04:38.818Z,99.55
2018-07-16T11:06:06.176Z,97.07
2018-07-16T11:07:33.753Z,100.00
2018-07-16T11:09:00.649Z,95.50
2018-07-16T11:10:28.277Z,90.09
2018-07-16T11:11:55.936Z,90.64
2018-07-16T11:13:27.540Z,89.47
2018-07-16T11:14:55.087Z,89.28
2018-07-16T11:16:18.737Z,90.00
2018-07-16T11:17:50.341Z,89.42
2018-07-16T11:19:13.803Z,91.64
2018-07-16T11:20:45.302Z,86.62
2018-07-16T11:22:08.825Z,87.88
2018-07-16T11:23:36.536Z,94.82
2018-07-16T11:25:04.187Z,89.77
2018-07-16T11:26:35.622Z,91.86
2018-07-16T11:28:03.255Z,92.50
2018-07-16T11:29:27.021Z,90.05
2018-07-16T11:30:54.566Z,84.73
2018-07-16T11:32:22.196Z,84.21
2018-07-16T11:33:49.703Z,83.09
2018-07-16T11:35:21.237Z,77.51
2018-07-16T11:36:44.763Z,76.20
2018-07-16T11:38:16.435Z,79.34
2018-07-16T11:39:40.048Z,77.42
2018-07-16T11:41:07.535Z,74.38
2018-07-16T11:42:35.353Z,80.37
2018-07-16T11:44:02.628Z,84.39
2018-07-16T11:45:30.131Z,82.18
2018-07-16T11:46:57.621Z,85.84
2018-07-16T11:48:25.052Z,83.30
2018-07-16T11:49:52.789Z,83.03
2018-07-16T11:51:24.388Z,84.07
2018-07-16T11:52:48.071Z,81.05
2018-07-16T11:54:19.782Z,88.78
2018-07-16T11:55:43.507Z,89.78
2018-07-16T11:57:15.071Z,91.09
2018-07-16T11:58:38.529Z,90.41
2018-07-16T12:00:06.142Z,86.64
2018-07-16T12:01:33.808Z,82.93
2018-07-16T12:03:01.372Z,86.12
2018-07-16T12:04:28.934Z,87.13
2018-07-16T12:05:56.654Z,82.61
2018-07-16T12:07:24.263Z,82.01
2018-07-16T12:08:51.936Z,87.46
2018-07-16T12:10:19.504Z,85.63
2018-07-16T12:11:47.227Z,82.50
2018-07-16T12:13:14.808Z,86.74
2018-07-16T12:14:46.448Z,79.08
2018-07-16T12:16:10.086Z,82.83
2018-07-16T12:17:37.796Z,83.63
2018-07-16T12:19:05.360Z,82.92
2018-07-16T12:20:32.921Z,87.27
2018-07-16T12:22:04.513Z,87.46
2018-07-16T12:23:28.365Z,84.46
2018-07-16T12:24:55.961Z,83.69
2018-07-16T12:26:23.391Z,83.09
2018-07-16T12:27:54.959Z,79.88
2018-07-16T12:29:18.619Z,76.25
2018-07-16T12:30:46.280Z,72.44
2018-07-16T12:32:13.880Z,73.08
2018-07-16T12:33:41.582Z,77.55
2018-07-16T12:35:09.252Z,71.50
2018-07-16T12:36:36.770Z,78.91
2018-07-16T12:38:04.516Z,83.32
2018-07-16T12:39:31.875Z,84.36
2018-07-16T12:41:03.566Z,81.61
2018-07-16T12:42:27.093Z,80.82
2018-07-16T12:43:54.680Z,85.87
2018-07-16T12:45:22.316Z,85.09
2018-07-16T12:46:53.823Z,78.90
2018-07-16T12:48:21.431Z,78.02
2018-07-16T12:49:45.143Z,81.23
2018-07-16T12:51:12.694Z,79.40
2018-07-16T12:52:40.218Z,82.20
2018-07-16T12:54:07.886Z,81.70
2018-07-16T12:55:35.543Z,77.19
2018-07-16T12:57:03.079Z,74.97
2018-07-16T12:58:34.777Z,74.13
2018-07-16T12:59:58.181Z,75.25
2018-07-16T13:01:25.839Z,76.05
2018-07-16T13:02:53.581Z,73.56
2018-07-16T13:04:20.902Z,80.24
2018-07-16T13:05:48.865Z,76.77
2018-07-16T13:07:16.574Z,81.05
2018-07-16T13:08:44.221Z,82.13
2018-07-16T13:10:15.802Z,81.81
2018-07-16T13:11:39.436Z,84.75
2018-07-16T13:13:11.170Z,81.86
2018-07-16T13:14:38.831Z,83.14
2018-07-16T13:16:02.282Z,88.29
2018-07-16T13:17:29.824Z,86.76
2018-07-16T13:18:57.633Z,92.58
2018-07-16T13:20:25.145Z,87.76
2018-07-16T13:21:52.854Z,87.72
2018-07-16T13:23:20.288Z,87.59
2018-07-16T13:24:48.110Z,89.32
2018-07-16T13:26:15.738Z,94.16
2018-07-16T13:27:43.507Z,91.19
2018-07-16T13:29:11.169Z,95.26
2018-07-16T13:30:38.758Z,97.67
2018-07-16T13:32:10.149Z,92.77
2018-07-16T13:33:33.826Z,94.75
2018-07-16T13:35:01.492Z,93.38
2018-07-16T13:36:29.155Z,88.91
2018-07-16T13:38:00.801Z,96.48
2018-07-16T13:39:24.504Z,100.00
2018-07-16T13:40:52.078Z,96.75
2018-07-16T13:42:19.630Z,99.61
2018-07-16T13:43:47.254Z,88.47
2018-07-16T13:45:14.892Z,91.22
2018-07-16T13:46:42.400Z,95.20
2018-07-16T13:48:14.069Z,98.50
2018-07-16T13:49:41.806Z,95.23
2018-07-16T13:51:05.577Z,100.00
2018-07-16T13:52:33.160Z,99.32
2018-07-16T13:54:00.768Z,97.22
2018-07-16T13:55:32.226Z,94.06
2018-07-16T13:56:55.760Z,92.70
2018-07-16T13:58:23.451Z,96.16
2018-07-16T13:59:50.841Z,91.20
2018-07-16T14:01:18.300Z,90.75
2018-07-16T14:02:45.893Z,90.53
2018-07-16T14:04:13.521Z,91.76
2018-07-16T14:05:41.197Z,91.02
2018-07-16T14:07:08.787Z,92.60
2018-07-16T14:08:40.393Z,92.50
2018-07-16T14:10:04.019Z,94.19
2018-07-16T14:11:31.693Z,96.71
2018-07-16T14:12:59.127Z,100.00
2018-07-16T14:14:30.613Z,99.93
2018-07-16T14:15:54.248Z,100.00
2018-07-16T14:17:25.883Z,99.27
2018-07-16T14:18:49.362Z,98.44
2018-07-16T14:20:16.907Z,98.59
2018-07-16T14:21:44.577Z,99.19
2018-07-16T14:23:16.242Z,98.66
2018-07-16T14:24:39.720Z,99.65
2018-07-16T14:26:11.428Z,100.00
2018-07-16T14:27:35.110Z,100.00
2018-07-16T14:29:02.795Z,99.70
2018-07-16T14:30:30.544Z,95.37
2018-07-16T14:31:58.001Z,98.92
2018-07-16T14:33:29.573Z,100.00
2018-07-16T14:34:52.860Z,100.00
2018-07-16T14:36:20.449Z,100.00
2018-07-16T14:37:48.025Z,100.00
2018-07-16T14:39:19.847Z,100.00
2018-07-16T14:40:43.396Z,96.08
2018-07-16T14:42:14.900Z,92.50
2018-07-16T14:43:38.540Z,97.97
2018-07-16T14:45:06.061Z,100.00
2018-07-16T14:46:33.496Z,100.00
2018-07-16T14:48:00.620Z,100.00
2018-07-16T14:49:28.259Z,100.00
2018-07-16T14:50:55.766Z,100.00
2018-07-16T14:52:23.238Z,100.00
2018-07-16T14:53:50.730Z,100.00
2018-07-16T14:55:22.367Z,100.00
2018-07-16T14:56:49.743Z,100.00
2018-07-16T14:58:13.279Z,100.00
2018-07-16T14:59:40.946Z,100.00
2018-07-16T15:01:08.533Z,100.00
2018-07-16T15:02:36.053Z,100.00
2018-07-16T15:04:03.588Z,100.00
2018-07-16T15:05:31.078Z,100.00
2018-07-16T15:06:58.850Z,100.00
2018-07-16T15:08:26.200Z,100.00
2018-07-16T15:09:58.021Z,100.00
2018-07-16T15:11:25.675Z,100.00
2018-07-16T15:12:49.215Z,100.00
2018-07-16T15:14:16.725Z,100.00
2018-07-16T15:15:48.527Z,100.00
2018-07-16T15:17:12.017Z,100.00
2018-07-16T15:18:39.824Z,100.00
2018-07-16T15:20:07.472Z,100.00
2018-07-16T15:21:34.960Z,100.00
2018-07-16T15:23:02.544Z,100.00
2018-07-16T15:24:34.143Z,100.00
2018-07-16T15:25:57.662Z,100.00
2018-07-16T15:27:25.294Z,100.00
2018-07-16T15:28:52.661Z,100.00
2018-07-16T15:30:20.266Z,100.00
2018-07-16T15:31:47.828Z,100.00
2018-07-16T15:33:19.685Z,100.00
2018-07-16T15:34:43.148Z,100.00
2018-07-16T15:36:14.823Z,100.00
2018-07-16T15:37:38.457Z,100.00
2018-07-16T15:39:05.807Z,100.00
2018-07-16T15:40:33.443Z,100.00
2018-07-16T15:42:05.027Z,100.00
2018-07-16T15:43:32.597Z,100.00
2018-07-16T15:44:56.043Z,100.00
2018-07-16T15:46:23.619Z,100.00
2018-07-16T15:47:51.368Z,100.00
2018-07-16T15:49:18.799Z,100.00
2018-07-16T15:50:46.379Z,100.00
2018-07-16T15:52:14.056Z,100.00
2018-07-16T15:53:41.897Z,100.00
2018-07-16T15:55:09.463Z,100.00
2018-07-16T15:56:37.144Z,100.00
2018-07-16T15:58:04.825Z,100.00
2018-07-16T15:59:32.510Z,100.00
2018-07-16T16:01:04.134Z,100.00
2018-07-16T16:02:27.654Z,100.00
2018-07-16T16:03:59.383Z,100.00
2018-07-16T16:05:26.922Z,100.00
2018-07-16T16:06:50.452Z,100.00
2018-07-16T16:08:18.255Z,100.00
2018-07-16T16:09:45.929Z,100.00
2018-07-16T16:11:13.700Z,100.00
2018-07-16T16:12:41.375Z,100.00
2018-07-16T16:14:08.987Z,100.00
2018-07-16T16:15:40.776Z,100.00
2018-07-16T16:17:04.223Z,100.00
2018-07-16T16:18:31.611Z,100.00
2018-07-16T16:19:59.506Z,100.00
2018-07-16T16:21:26.938Z,100.00
2018-07-16T16:22:54.468Z,100.00
2018-07-16T16:24:22.088Z,100.00
2018-07-16T16:25:49.677Z,100.00
2018-07-16T16:27:21.199Z,100.00
2018-07-16T16:28:48.895Z,100.00
2018-07-16T16:30:12.566Z,100.00
2018-07-16T16:31:40.184Z,100.00
2018-07-16T16:33:07.979Z,100.00
2018-07-16T16:34:35.548Z,100.00
2018-07-16T16:36:03.258Z,100.00
2018-07-16T16:37:30.696Z,100.00
2018-07-16T16:38:58.435Z,100.00
2018-07-16T16:40:26.077Z,100.00
2018-07-16T16:41:53.629Z,100.00
2018-07-16T16:43:21.103Z,100.00
2018-07-16T16:44:48.788Z,100.00
2018-07-16T16:46:16.420Z,98.36
2018-07-16T16:47:44.242Z,100.00
2018-07-16T16:49:15.913Z,100.00
2018-07-16T16:50:39.467Z,97.18
2018-07-16T16:52:07.008Z,97.47
2018-07-16T16:53:34.552Z,100.00
2018-07-16T16:55:02.124Z,100.00
2018-07-16T16:56:29.835Z,100.00
2018-07-16T16:57:57.333Z,100.00
2018-07-16T16:59:24.964Z,100.00
2018-07-16T17:00:56.529Z,100.00
2018-07-16T17:02:20.155Z,100.00
2018-07-16T17:03:47.836Z,100.00
2018-07-16T17:05:19.521Z,100.00
2018-07-16T17:06:47.078Z,100.00
2018-07-16T17:08:10.707Z,100.00
2018-07-16T17:09:42.042Z,100.00
2018-07-16T17:11:05.535Z,100.00
2018-07-16T17:12:33.236Z,100.00
2018-07-16T17:14:00.935Z,100.00
2018-07-16T17:15:28.479Z,100.00
2018-07-16T17:16:55.888Z,100.00
2018-07-16T17:18:23.572Z,100.00
2018-07-16T17:19:55.209Z,100.00
2018-07-16T17:21:18.491Z,100.00
2018-07-16T17:22:50.332Z,100.00
2018-07-16T17:24:13.894Z,100.00
2018-07-16T17:25:45.567Z,100.00
2018-07-16T17:27:09.113Z,100.00
2018-07-16T17:28:36.678Z,100.00
2018-07-16T17:30:04.222Z,100.00
2018-07-16T17:31:31.736Z,100.00
2018-07-16T17:32:59.393Z,100.00
2018-07-16T17:34:27.006Z,100.00
2018-07-16T17:35:54.407Z,100.00
2018-07-16T17:37:22.034Z,100.00
2018-07-16T17:38:49.585Z,100.00
2018-07-16T17:40:21.177Z,100.00
2018-07-16T17:41:44.439Z,100.00
2018-07-16T17:43:16.216Z,100.00
2018-07-16T17:44:39.583Z,100.00
2018-07-16T17:46:11.119Z,100.00
2018-07-16T17:47:38.823Z,100.00
2018-07-16T17:49:06.528Z,100.00
2018-07-16T17:50:29.907Z,100.00
2018-07-16T17:52:01.472Z,100.00
2018-07-16T17:53:25.091Z,100.00
2018-07-16T17:54:52.503Z,100.00
2018-07-16T17:56:20.095Z,100.00
2018-07-16T17:57:47.642Z,100.00
2018-07-16T17:59:19.410Z,100.00
2018-07-16T18:00:46.885Z,100.00
2018-07-16T18:02:10.548Z,100.00
2018-07-16T18:03:38.071Z,100.00
2018-07-16T18:05:05.776Z,100.00
2018-07-16T18:06:33.387Z,100.00
2018-07-16T18:08:05.018Z,100.00
2018-07-16T18:09:28.296Z,100.00
2018-07-16T18:10:55.985Z,100.00
2018-07-16T18:12:23.492Z,100.00
2018-07-16T18:13:54.977Z,100.00
2018-07-16T18:15:18.363Z,100.00
2018-07-16T18:16:46.045Z,100.00
2018-07-16T18:18:17.582Z,100.00
2018-07-16T18:19:41.043Z,100.00
2018-07-16T18:21:08.551Z,100.00
2018-07-16T18:22:36.009Z,100.00
2018-07-16T18:24:03.393Z,100.00
2018-07-16T18:25:35.105Z,100.00
2018-07-16T18:27:02.589Z,100.00
2018-07-16T18:28:26.224Z,100.00
2018-07-16T18:29:53.795Z,100.00
2018-07-16T18:31:25.338Z,100.00
2018-07-16T18:32:52.823Z,100.00
2018-07-16T18:34:16.443Z,100.00
2018-07-16T18:35:44.113Z,100.00
2018-07-16T18:37:11.530Z,100.00
2018-07-16T18:38:39.019Z,100.00
2018-07-16T18:40:10.690Z,100.00
2018-07-16T18:41:34.309Z,100.00
2018-07-16T18:43:01.995Z,100.00
2018-07-16T18:44:29.516Z,100.00
2018-07-16T18:45:57.315Z,100.00
2018-07-16T18:47:25.008Z,100.00
2018-07-16T18:48:56.649Z,100.00
2018-07-16T18:50:24.159Z,100.00
2018-07-16T18:51:47.698Z,100.00
2018-07-16T18:53:15.294Z,100.00
2018-07-16T18:54:42.705Z,100.00
2018-07-16T18:56:10.377Z,100.00
2018-07-16T18:57:41.902Z,100.00
2018-07-16T18:59:05.589Z,100.00
2018-07-16T19:00:33.040Z,100.00
2018-07-16T19:02:00.536Z,100.00
2018-07-16T19:03:28.024Z,100.00
2018-07-16T19:04:55.809Z,100.00
2018-07-16T19:06:23.014Z,100.00
2018-07-16T19:07:50.567Z,100.00
2018-07-16T19:09:22.073Z,100.00
2018-07-16T19:10:49.656Z,100.00
2018-07-16T19:12:17.126Z,100.00
2018-07-16T19:13:40.789Z,100.00
2018-07-16T19:15:12.356Z,100.00
2018-07-16T19:16:35.941Z,100.00
2018-07-16T19:18:03.514Z,100.00
2018-07-16T19:19:31.297Z,100.00
2018-07-16T19:20:59.024Z,100.00
2018-07-16T19:22:30.431Z,100.00
2018-07-16T19:23:53.776Z,100.00
2018-07-16T19:25:21.258Z,100.00
2018-07-16T19:26:48.712Z,100.00
2018-07-16T19:28:16.293Z,100.00
2018-07-16T19:29:43.935Z,100.00
2018-07-16T19:31:15.610Z,100.00
2018-07-16T19:32:39.205Z,100.00
2018-07-16T19:34:10.705Z,100.00
2018-07-16T19:35:34.285Z,100.00
2018-07-16T19:37:05.958Z,100.00
2018-07-16T19:38:29.323Z,100.00
2018-07-16T19:40:01.000Z,100.00
2018-07-16T19:41:28.596Z,100.00
2018-07-16T19:42:56.185Z,100.00
2018-07-16T19:44:19.584Z,100.00
2018-07-16T19:45:47.312Z,100.00
2018-07-16T19:47:18.771Z,100.00
2018-07-16T19:48:42.448Z,100.00
2018-07-16T19:50:09.927Z,100.00
2018-07-16T19:51:37.443Z,100.00
2018-07-16T19:53:08.881Z,100.00
2018-07-16T19:54:32.111Z,100.00
2018-07-16T19:55:59.741Z,100.00
2018-07-16T19:57:31.275Z,100.00
2018-07-16T19:58:58.881Z,100.00
2018-07-16T20:00:22.555Z,100.00
2018-07-16T20:01:53.872Z,100.00
2018-07-16T20:03:17.440Z,100.00
2018-07-16T20:04:44.914Z,100.00
2018-07-16T20:06:16.492Z,100.00
2018-07-16T20:07:40.309Z,100.00
2018-07-16T20:09:07.840Z,100.00
2018-07-16T20:10:39.330Z,100.00
2018-07-16T20:12:02.819Z,100.00
2018-07-16T20:13:30.370Z,100.00
2018-07-16T20:14:57.812Z,100.00
2018-07-16T20:16:25.472Z,100.00
2018-07-16T20:17:52.935Z,100.00
2018-07-16T20:19:20.539Z,100.00
2018-07-16T20:20:47.914Z,100.00
2018-07-16T20:22:15.317Z,100.00
2018-07-16T20:23:43.188Z,100.00
2018-07-16T20:25:10.776Z,100.00
2018-07-16T20:26:38.356Z,100.00
2018-07-16T20:28:05.621Z,100.00
2018-07-16T20:29:33.287Z,100.00
2018-07-16T20:31:00.708Z,100.00
2018-07-16T20:32:28.447Z,100.00
2018-07-16T20:33:59.564Z,100.00
2018-07-16T20:35:27.046Z,100.00
2018-07-16T20:36:50.405Z,100.00
2018-07-16T20:38:22.115Z,100.00
2018-07-16T20:39:45.679Z,100.00
2018-07-16T20:41:13.267Z,100.00
2018-07-16T20:42:44.745Z,100.00
2018-07-16T20:44:08.330Z,100.00
2018-07-16T20:45:39.961Z,100.00
2018-07-16T20:47:03.595Z,100.00
2018-07-16T20:48:34.898Z,100.00
2018-07-16T20:49:58.527Z,100.00
2018-07-16T20:51:25.852Z,100.00
2018-07-16T20:52:57.485Z,100.00
2018-07-16T20:54:20.944Z,100.00
2018-07-16T20:55:48.409Z,100.00
2018-07-16T20:57:15.925Z,100.00
2018-07-16T20:58:43.401Z,100.00
2018-07-16T21:00:14.960Z,100.00
2018-07-16T21:01:42.533Z,100.00
2018-07-16T21:03:06.870Z,100.00
2018-07-16T21:04:33.298Z,100.00
2018-07-16T21:06:00.839Z,100.00
2018-07-16T21:07:28.429Z,100.00
2018-07-16T21:08:55.686Z,100.00
2018-07-16T21:10:26.972Z,100.00
2018-07-16T21:11:50.465Z,100.00
2018-07-16T21:13:17.882Z,100.00
2018-07-16T21:14:49.376Z,100.00
2018-07-16T21:16:16.745Z,100.00
2018-07-16T21:17:40.265Z,100.00
2018-07-16T21:19:11.867Z,100.00
2018-07-16T21:20:35.425Z,100.00
2018-07-16T21:22:03.224Z,100.00
2018-07-16T21:23:34.655Z,100.00
2018-07-16T21:25:02.049Z,100.00
2018-07-16T21:26:29.595Z,100.00
2018-07-16T21:27:52.983Z,100.00
2018-07-16T21:29:24.412Z,100.00
2018-07-16T21:30:47.881Z,100.00
2018-07-16T21:32:19.439Z,100.00
2018-07-16T21:35:14.153Z,100.00
2018-07-16T21:37:06.344Z,100.00
2018-07-16T21:38:37.476Z,100.00
2018-07-16T21:41:37.799Z,100.00
2018-07-16T21:43:18.470Z,100.00
2018-07-16T21:44:45.746Z,100.00
2018-07-16T21:46:13.110Z,100.00
2018-07-16T21:47:36.524Z,100.00
2018-07-16T21:49:04.030Z,100.00
2018-07-16T21:50:31.376Z,100.00
2018-07-16T21:52:02.875Z,100.00
2018-07-16T21:53:26.098Z,100.00
2018-07-16T21:54:53.648Z,100.00
2018-07-16T21:56:21.069Z,100.00
2018-07-16T21:57:52.533Z,100.00
2018-07-16T21:59:16.098Z,100.00
2018-07-16T22:00:43.713Z,100.00
2018-07-16T22:02:11.080Z,100.00
2018-07-16T22:03:38.647Z,100.00
2018-07-16T22:05:10.025Z,100.00
2018-07-16T22:06:37.252Z,100.00
2018-07-16T22:08:00.589Z,100.00
2018-07-16T22:09:31.927Z,100.00
2018-07-16T22:10:55.485Z,100.00
2018-07-16T22:12:26.796Z,100.00
2018-07-16T22:13:50.283Z,100.00
2018-07-16T22:15:17.729Z,100.00
2018-07-16T22:16:49.251Z,100.00
2018-07-16T22:18:16.753Z,100.00
2018-07-16T22:19:40.175Z,100.00
2018-07-16T22:21:07.569Z,100.00
2018-07-16T22:22:34.931Z,100.00
2018-07-16T22:24:06.404Z,100.00
2018-07-16T22:25:33.915Z,100.00
2018-07-16T22:27:01.194Z,100.00
2018-07-16T22:28:28.663Z,100.00
2018-07-16T22:29:55.800Z,100.00
2018-07-16T22:31:18.997Z,100.00
2018-07-16T22:32:46.275Z,100.00
2018-07-16T22:34:13.760Z,100.00
2018-07-16T22:45:55.725Z,100.00
2018-07-16T22:47:18.319Z,100.00
2018-07-16T22:48:45.726Z,100.00
2018-07-16T22:50:17.070Z,100.00
2018-07-16T22:51:40.540Z,100.00
2018-07-16T22:53:07.912Z,100.00
2018-07-16T22:54:35.291Z,100.00
2018-07-16T22:56:06.488Z,100.00
2018-07-16T22:57:29.896Z,100.00
2018-07-16T22:58:57.361Z,100.00
2018-07-16T23:00:24.856Z,100.00
2018-07-16T23:01:56.272Z,100.00
2018-07-16T23:03:19.644Z,100.00
2018-07-16T23:04:51.203Z,100.00
2018-07-16T23:06:14.684Z,100.00
2018-07-16T23:07:42.085Z,100.00
2018-07-16T23:09:09.498Z,100.00
2018-07-16T23:10:36.761Z,100.00
2018-07-16T23:12:04.285Z,100.00
2018-07-16T23:13:31.690Z,100.00
2018-07-16T23:14:59.118Z,100.00
2018-07-16T23:16:26.330Z,100.00
2018-07-16T23:17:57.899Z,100.00
2018-07-16T23:19:25.409Z,100.00
2018-07-16T23:20:48.830Z,100.00
2018-07-16T23:22:16.340Z,100.00
2018-07-16T23:23:43.651Z,100.00
2018-07-16T23:25:11.306Z,100.00
2018-07-16T23:26:38.918Z,100.00
2018-07-16T23:28:06.638Z,100.00
2018-07-16T23:48:37.593Z,100.00
2018-07-16T23:50:04.401Z,100.00
2018-07-16T23:51:31.298Z,100.00
2018-07-16T23:52:58.771Z,100.00
2018-07-16T23:54:26.198Z,100.00
